Time;durP1;ratioP1;P1;durP2;ratioP2;P2;SDS_P1;SDS_P2;PMS_P1;PMS_P2;Temp;Humidity;BMP_temperature;BMP_pressure;BME280_temperature;BME280_humidity;BME280_pressure;Samples;Min_cycle;Max_cycle;Signal;HPM_P1;HPM_P2
2021/08/11 00:01:14;;;;;;;13.53;10.08;;;;;;;21.36;100.00;100246.22;1691672;83;21056;-82
2021/08/11 00:03:41;;;;;;;13.15;10.43;;;;;;;21.43;100.00;100248.39;1674646;83;21040;-84
2021/08/11 00:06:08;;;;;;;17.40;10.48;;;;;;;21.48;100.00;100251.78;1683267;83;21102;-83
2021/08/11 00:08:36;;;;;;;16.40;10.43;;;;;;;21.54;100.00;100248.86;1672753;84;21058;-83
2021/08/11 00:11:03;;;;;;;28.17;10.75;;;;;;;21.56;100.00;100236.25;1671347;84;21743;-81
2021/08/11 00:13:30;;;;;;;15.40;11.03;;;;;;;21.58;100.00;100235.58;1675125;83;21189;-83
2021/08/11 00:15:59;;;;;;;14.80;10.93;;;;;;;21.62;100.00;100236.00;1699951;83;21082;-82
2021/08/11 00:18:27;;;;;;;15.93;9.80;;;;;;;21.65;100.00;100237.75;1731344;80;20993;-81
2021/08/11 00:20:54;;;;;;;15.38;9.95;;;;;;;21.62;100.00;100238.13;1676879;84;20974;-83
2021/08/11 00:23:23;;;;;;;13.10;10.75;;;;;;;21.60;100.00;100226.91;1686439;83;21879;-80
2021/08/11 00:25:53;;;;;;;14.50;10.38;;;;;;;21.62;100.00;100228.86;1711811;83;21062;-81
2021/08/11 00:28:18;;;;;;;14.35;9.58;;;;;;;21.64;100.00;100220.70;1664400;83;21077;-84
2021/08/11 00:30:46;;;;;;;14.03;9.85;;;;;;;21.65;100.00;100222.34;1703557;83;21547;-83
2021/08/11 00:33:13;;;;;;;14.68;9.25;;;;;;;21.63;100.00;100229.69;1681803;83;21287;-83
2021/08/11 00:35:39;;;;;;;12.23;9.95;;;;;;;21.56;100.00;100226.45;1684056;84;21209;-82
2021/08/11 00:38:06;;;;;;;12.40;10.40;;;;;;;21.50;100.00;100225.92;1680019;83;21158;-82
2021/08/11 00:40:34;;;;;;;16.48;9.80;;;;;;;21.36;100.00;100222.39;1681002;83;21609;-85
2021/08/11 00:43:07;;;;;;;11.55;10.35;;;;;;;21.16;100.00;100222.80;1692591;83;21082;-83
2021/08/11 00:45:38;;;;;;;11.22;9.93;;;;;;;21.02;100.00;100224.54;1690613;83;21038;-81
2021/08/11 00:48:08;;;;;;;13.60;9.78;;;;;;;20.96;100.00;100215.55;1698575;83;21176;-79
2021/08/11 00:50:38;;;;;;;12.33;9.13;;;;;;;20.91;100.00;100217.44;1704916;83;21092;-81
2021/08/11 00:53:08;;;;;;;11.28;9.58;;;;;;;20.92;100.00;100217.76;1703581;83;20972;-86
2021/08/11 00:55:40;;;;;;;10.65;9.50;;;;;;;20.89;100.00;100215.52;1721776;82;20997;-83
2021/08/11 00:58:10;;;;;;;10.25;9.25;;;;;;;20.86;100.00;100211.13;1731525;81;21038;-86
2021/08/11 01:00:45;;;;;;;13.55;9.35;;;;;;;20.79;100.00;100211.86;1712018;83;22132;-83
2021/08/11 01:03:20;;;;;;;15.13;10.40;;;;;;;20.77;100.00;100215.72;1679659;83;21565;-80
2021/08/11 01:05:51;;;;;;;11.15;8.65;;;;;;;20.77;100.00;100215.23;1663038;83;21489;-82
2021/08/11 01:08:19;;;;;;;13.68;9.10;;;;;;;20.80;100.00;100220.12;1660457;83;21094;-85
2021/08/11 01:10:49;;;;;;;13.28;10.15;;;;;;;20.80;100.00;100223.28;1677898;83;21530;-83
2021/08/11 01:13:17;;;;;;;10.88;9.60;;;;;;;20.80;100.00;100227.25;1704308;82;21804;-81
2021/08/11 01:15:48;;;;;;;11.93;10.05;;;;;;;20.82;100.00;100237.15;1684893;84;21799;-84
2021/08/11 01:18:19;;;;;;;12.35;10.18;;;;;;;20.76;100.00;100244.50;1685643;83;21071;-81
2021/08/11 01:21:08;;;;;;;11.88;9.98;;;;;;;20.63;100.00;100232.79;1688467;83;21098;-81
2021/08/11 01:24:02;;;;;;;11.10;9.88;;;;;;;20.58;100.00;100228.59;1681713;83;21036;-81
2021/08/11 01:27:00;;;;;;;11.48;10.28;;;;;;;20.57;100.00;100226.11;1676462;83;21228;-85
2021/08/11 01:30:00;;;;;;;15.05;9.85;;;;;;;20.56;100.00;100220.02;1708328;83;21136;-84
2021/08/11 01:33:01;;;;;;;12.13;10.83;;;;;;;20.51;100.00;100226.36;1633092;83;21684;-83
2021/08/11 01:35:43;;;;;;;19.93;11.43;;;;;;;20.45;100.00;100231.09;1684755;83;21081;-80
2021/08/11 01:38:15;;;;;;;18.98;11.43;;;;;;;20.42;100.00;100232.30;1691009;83;21499;-80
2021/08/11 01:40:51;;;;;;;18.25;11.18;;;;;;;20.37;100.00;100227.26;1709162;83;21103;-83
2021/08/11 01:43:22;;;;;;;15.23;10.65;;;;;;;20.31;100.00;100227.53;1710804;83;21089;-81
2021/08/11 01:45:50;;;;;;;12.65;10.63;;;;;;;20.25;100.00;100220.34;1684503;83;21084;-82
2021/08/11 01:48:23;;;;;;;11.15;10.05;;;;;;;20.26;100.00;100220.17;1681907;83;21571;-81
2021/08/11 01:50:51;;;;;;;11.63;10.10;;;;;;;20.27;100.00;100220.97;1679924;83;21636;-80
2021/08/11 01:53:23;;;;;;;11.57;10.13;;;;;;;20.23;100.00;100216.57;1684420;83;21196;-79
2021/08/11 01:55:54;;;;;;;16.73;10.32;;;;;;;20.17;100.00;100223.94;1720140;83;21589;-80
2021/08/11 01:58:28;;;;;;;16.35;11.12;;;;;;;20.14;100.00;100215.88;1679393;83;21023;-84
2021/08/11 02:01:01;;;;;;;11.50;9.30;;;;;;;20.15;100.00;100217.50;1715429;83;21067;-83
2021/08/11 02:03:31;;;;;;;10.75;9.18;;;;;;;20.21;100.00;100208.52;1686193;83;21034;-84
2021/08/11 02:06:00;;;;;;;11.60;9.43;;;;;;;20.21;100.00;100208.00;1662541;83;21106;-84
2021/08/11 02:08:27;;;;;;;13.60;9.70;;;;;;;20.19;100.00;100211.33;1738854;81;20947;-85
2021/08/11 02:11:00;;;;;;;13.95;9.93;;;;;;;20.16;100.00;100211.20;1745270;81;20919;-83
2021/08/11 02:13:29;;;;;;;12.37;10.30;;;;;;;20.22;100.00;100216.77;1709109;81;21159;-84
2021/08/11 02:15:58;;;;;;;13.03;10.58;;;;;;;20.30;100.00;100216.64;1722512;81;21070;-82
2021/08/11 02:18:26;;;;;;;12.07;10.15;;;;;;;20.31;100.00;100223.57;1674232;82;21110;-82
2021/08/11 02:20:57;;;;;;;14.35;9.88;;;;;;;20.31;100.00;100218.28;1712818;81;20948;-83
2021/08/11 02:23:25;;;;;;;16.17;10.20;;;;;;;20.34;100.00;100209.95;1716330;82;21077;-80
2021/08/11 02:26:19;;;;;;;13.28;10.20;;;;;;;20.40;100.00;100209.19;1718642;81;21168;-85
2021/08/11 02:29:06;;;;;;;12.05;10.15;;;;;;;20.47;100.00;100213.22;1679292;83;21057;-81
2021/08/11 02:31:58;;;;;;;11.48;10.10;;;;;;;20.49;100.00;100212.02;1694882;83;21098;-83
2021/08/11 02:34:53;;;;;;;10.73;9.03;;;;;;;20.46;100.00;100219.03;1706028;83;21080;-85
2021/08/11 02:37:43;;;;;;;25.75;10.48;;;;;;;20.43;100.00;100221.23;1692583;83;21018;-83
2021/08/11 02:40:36;;;;;;;15.15;10.63;;;;;;;20.44;100.00;100231.61;1688424;83;21057;-83
2021/08/11 02:43:24;;;;;;;25.68;16.52;;;;;;;20.53;100.00;100231.48;1683455;83;21046;-85
2021/08/11 02:45:56;;;;;;;50.50;26.33;;;;;;;20.60;100.00;100219.94;1694379;83;21171;-84
2021/08/11 02:48:25;;;;;;;24.80;15.25;;;;;;;20.65;100.00;100220.69;1702995;81;21541;-79
2021/08/11 02:50:52;;;;;;;21.48;12.47;;;;;;;20.64;100.00;100228.30;1715169;81;21656;-83
2021/08/11 02:53:22;;;;;;;17.12;10.30;;;;;;;20.65;100.00;100224.66;1702956;83;21251;-84
2021/08/11 02:55:52;;;;;;;15.53;10.48;;;;;;;20.71;100.00;100224.40;1674843;83;21094;-83
2021/08/11 02:58:22;;;;;;;11.35;10.08;;;;;;;20.66;100.00;100222.33;1675371;84;21178;-86
2021/08/11 03:00:51;;;;;;;11.22;10.00;;;;;;;20.53;100.00;100220.91;1649874;85;21125;-82
2021/08/11 03:03:19;;;;;;;11.28;10.10;;;;;;;20.41;100.00;100224.05;1652173;85;21087;-85
2021/08/11 03:05:46;;;;;;;10.93;9.63;;;;;;;20.32;100.00;100217.25;1676629;84;21007;-83
2021/08/11 03:08:16;;;;;;;12.33;10.05;;;;;;;20.27;100.00;100215.17;1673379;84;21170;-81
2021/08/11 03:10:43;;;;;;;13.72;10.23;;;;;;;20.26;100.00;100216.69;1650335;84;20983;-88
2021/08/11 03:13:13;;;;;;;12.95;9.23;;;;;;;20.22;100.00;100214.93;1671835;84;21039;-85
2021/08/11 03:15:43;;;;;;;9.73;8.60;;;;;;;20.18;100.00;100222.94;1670036;84;21529;-83
2021/08/11 03:18:10;;;;;;;12.18;9.30;;;;;;;20.05;100.00;100224.94;1674217;85;21049;-85
2021/08/11 03:20:40;;;;;;;13.53;9.55;;;;;;;19.98;100.00;100227.50;1676106;84;20972;-82
2021/08/11 03:23:12;;;;;;;13.40;9.07;;;;;;;20.00;100.00;100232.58;1675706;84;21171;-82
2021/08/11 03:25:39;;;;;;;12.05;9.25;;;;;;;20.03;100.00;100238.03;1660453;84;21016;-82
2021/08/11 03:28:06;;;;;;;11.73;9.00;;;;;;;20.01;100.00;100238.19;1679098;84;21090;-84
2021/08/11 03:30:35;;;;;;;9.88;8.73;;;;;;;20.00;100.00;100229.45;1701085;83;21001;-86
2021/08/11 03:33:04;;;;;;;10.08;7.92;;;;;;;20.00;100.00;100224.66;1676343;84;21071;-82
2021/08/11 03:35:32;;;;;;;14.73;8.70;;;;;;;19.96;100.00;100224.73;1707978;83;21137;-83
2021/08/11 03:37:59;;;;;;;11.57;8.33;;;;;;;19.89;100.00;100218.56;1710541;83;21058;-82
2021/08/11 03:40:27;;;;;;;10.88;8.68;;;;;;;19.85;100.00;100220.23;1706706;83;21201;-86
2021/08/11 03:42:54;;;;;;;10.55;9.38;;;;;;;19.86;100.00;100223.20;1659807;83;21604;-83
2021/08/11 03:45:22;;;;;;;10.90;8.85;;;;;;;19.85;100.00;100217.59;1688626;83;21063;-83
2021/08/11 03:47:50;;;;;;;15.88;9.03;;;;;;;19.84;100.00;100214.64;1687047;83;21445;-87
2021/08/11 03:50:21;;;;;;;11.33;8.85;;;;;;;19.86;100.00;100213.15;1694170;83;21581;-83
2021/08/11 03:52:49;;;;;;;15.40;9.75;;;;;;;19.94;100.00;100217.48;1709705;83;20973;-84
2021/08/11 03:55:18;;;;;;;9.48;8.38;;;;;;;20.01;100.00;100221.85;1684095;83;21038;-81
2021/08/11 03:57:45;;;;;;;9.70;8.68;;;;;;;20.09;100.00;100218.77;1676119;83;21120;-79
2021/08/11 04:00:13;;;;;;;11.63;9.00;;;;;;;20.13;100.00;100209.45;1700257;83;21119;-85
2021/08/11 04:02:43;;;;;;;11.90;9.18;;;;;;;20.21;100.00;100202.72;1697643;83;21571;-85
2021/08/11 04:05:10;;;;;;;17.07;8.83;;;;;;;20.34;100.00;100208.63;1710032;83;21082;-82
2021/08/11 04:07:37;;;;;;;11.12;7.83;;;;;;;20.43;100.00;100217.27;1682752;83;21042;-84
2021/08/11 04:10:07;;;;;;;11.45;8.63;;;;;;;20.48;100.00;100216.19;1670887;84;21853;-81
2021/08/11 04:12:34;;;;;;;12.78;8.90;;;;;;;20.54;100.00;100213.29;1696209;83;21120;-82
2021/08/11 04:15:01;;;;;;;11.18;7.78;;;;;;;20.57;100.00;100202.31;1697092;83;21089;-83
2021/08/11 04:17:28;;;;;;;12.18;8.00;;;;;;;20.60;100.00;100202.74;1669338;84;21690;-82
2021/08/11 04:19:56;;;;;;;11.00;8.60;;;;;;;20.66;100.00;100195.88;1681457;83;21110;-84
2021/08/11 04:22:25;;;;;;;10.25;8.28;;;;;;;20.67;100.00;100192.22;1694440;83;21025;-85
2021/08/11 04:24:52;;;;;;;12.15;8.28;;;;;;;20.67;100.00;100194.87;1694009;83;21069;-83
2021/08/11 04:27:19;;;;;;;14.05;9.40;;;;;;;20.64;100.00;100192.11;1682323;83;21043;-85
2021/08/11 04:29:46;;;;;;;10.82;8.68;;;;;;;20.65;100.00;100197.72;1686623;83;21518;-82
2021/08/11 04:32:12;;;;;;;11.63;8.80;;;;;;;20.66;100.00;100199.84;1666659;83;21112;-84
2021/08/11 04:34:39;;;;;;;14.63;9.05;;;;;;;20.67;100.00;100201.48;1701100;82;21057;-84
2021/08/11 04:37:06;;;;;;;13.83;8.83;;;;;;;20.71;100.00;100197.95;1706958;83;21147;-85
2021/08/11 04:39:34;;;;;;;14.28;9.45;;;;;;;20.77;100.00;100206.45;1696770;83;21659;-82
2021/08/11 04:42:00;;;;;;;15.15;10.00;;;;;;;20.82;100.00;100210.69;1665581;83;21183;-80
2021/08/11 04:44:27;;;;;;;16.40;10.98;;;;;;;20.84;100.00;100210.48;1691489;83;21277;-86
2021/08/11 04:46:55;;;;;;;21.30;11.38;;;;;;;20.83;100.00;100214.14;1682425;83;21130;-84
2021/08/11 04:49:22;;;;;;;19.57;12.53;;;;;;;20.82;100.00;100212.02;1687705;83;21122;-83
2021/08/11 04:51:49;;;;;;;18.07;12.47;;;;;;;20.88;100.00;100211.72;1689354;83;20991;-86
2021/08/11 04:54:16;;;;;;;17.27;12.18;;;;;;;20.97;100.00;100213.21;1676946;84;21026;-84
2021/08/11 04:56:42;;;;;;;20.25;12.70;;;;;;;21.06;100.00;100221.31;1698250;83;21078;-81
2021/08/11 04:59:09;;;;;;;17.25;11.75;;;;;;;21.15;100.00;100216.70;1674560;84;21568;-85
2021/08/11 05:01:36;;;;;;;15.45;11.20;;;;;;;21.25;100.00;100222.96;1679284;83;21113;-80
2021/08/11 05:04:02;;;;;;;18.05;11.10;;;;;;;21.35;100.00;100215.45;1704413;83;21013;-83
2021/08/11 05:06:29;;;;;;;16.27;10.95;;;;;;;21.42;100.00;100208.88;1693156;83;21003;-82
2021/08/11 05:08:57;;;;;;;21.27;11.80;;;;;;;21.50;100.00;100207.91;1670116;83;21132;-80
2021/08/11 05:11:24;;;;;;;16.60;11.57;;;;;;;21.55;100.00;100204.15;1689393;83;21057;-80
2021/08/11 05:13:50;;;;;;;17.05;11.83;;;;;;;21.62;100.00;100201.05;1670710;83;21747;-82
2021/08/11 05:16:17;;;;;;;17.87;11.43;;;;;;;21.69;100.00;100199.23;1698436;83;21133;-83
2021/08/11 05:18:44;;;;;;;14.95;11.25;;;;;;;21.77;100.00;100208.02;1678223;83;21079;-82
2021/08/11 05:21:11;;;;;;;16.57;12.23;;;;;;;21.84;100.00;100208.36;1675628;83;20991;-83
2021/08/11 05:23:38;;;;;;;16.25;11.15;;;;;;;21.89;100.00;100210.41;1710950;83;21011;-81
2021/08/11 05:26:05;;;;;;;16.73;11.85;;;;;;;21.97;100.00;100214.70;1690592;83;21859;-82
2021/08/11 05:28:31;;;;;;;17.95;12.10;;;;;;;22.04;100.00;100219.01;1689404;83;21011;-86
2021/08/11 05:30:58;;;;;;;16.32;11.48;;;;;;;22.13;100.00;100214.32;1710580;83;20986;-85
2021/08/11 05:33:25;;;;;;;15.23;11.35;;;;;;;22.23;100.00;100213.95;1685864;83;21035;-84
2021/08/11 05:35:51;;;;;;;15.45;11.10;;;;;;;22.33;100.00;100213.02;1683824;83;21589;-83
2021/08/11 05:38:18;;;;;;;11.53;10.38;;;;;;;22.42;100.00;100216.83;1696148;83;21147;-83
2021/08/11 05:40:45;;;;;;;16.60;10.90;;;;;;;22.52;100.00;100219.91;1696375;83;21007;-81
2021/08/11 05:43:12;;;;;;;15.68;10.28;;;;;;;22.60;100.00;100231.64;1679410;83;21025;-81
2021/08/11 05:45:38;;;;;;;17.70;11.20;;;;;;;22.67;100.00;100229.80;1707749;83;21265;-79
2021/08/11 05:48:05;;;;;;;15.93;10.88;;;;;;;22.75;100.00;100229.28;1685471;83;21638;-84
2021/08/11 05:50:32;;;;;;;18.77;11.00;;;;;;;22.83;100.00;100225.09;1681138;83;21099;-82
2021/08/11 05:52:59;;;;;;;16.15;10.98;;;;;;;22.91;100.00;100226.20;1683999;83;21074;-83
2021/08/11 05:55:26;;;;;;;15.38;10.40;;;;;;;22.97;100.00;100228.55;1710906;83;21100;-86
2021/08/11 05:57:53;;;;;;;18.10;10.35;;;;;;;22.98;100.00;100230.99;1674062;84;21524;-82
2021/08/11 06:00:20;;;;;;;13.62;10.28;;;;;;;22.99;100.00;100227.84;1686327;82;21018;-85
2021/08/11 06:02:47;;;;;;;15.65;10.50;;;;;;;22.98;100.00;100223.55;1701185;83;21275;-86
2021/08/11 06:05:17;;;;;;;14.28;10.28;;;;;;;22.98;100.00;100239.48;1694054;82;21489;-84
2021/08/11 06:07:44;;;;;;;17.20;10.58;;;;;;;22.97;100.00;100239.17;1673572;83;21022;-86
2021/08/11 06:10:14;;;;;;;11.30;9.80;;;;;;;22.99;100.00;100233.16;1686727;83;21025;-80
2021/08/11 06:12:41;;;;;;;16.62;10.88;;;;;;;23.02;100.00;100227.41;1686039;83;21160;-84
2021/08/11 06:15:08;;;;;;;13.62;10.88;;;;;;;23.00;100.00;100224.14;1670547;83;21780;-85
2021/08/11 06:17:47;;;;;;;18.27;11.10;;;;;;;22.98;100.00;100223.02;1754354;81;20983;-80
2021/08/11 06:20:17;;;;;;;11.88;10.63;;;;;;;22.98;100.00;100219.57;1721709;81;21096;-79
2021/08/11 06:22:44;;;;;;;15.85;10.10;;;;;;;23.00;100.00;100213.52;1711381;81;21092;-85
2021/08/11 06:25:12;;;;;;;12.25;9.85;;;;;;;23.00;100.00;100218.33;1716463;81;21081;-81
2021/08/11 06:27:40;;;;;;;11.20;9.80;;;;;;;23.00;100.00;100217.00;1712763;81;21006;-84
2021/08/11 06:30:09;;;;;;;14.20;10.25;;;;;;;23.00;100.00;100217.50;1765742;80;21617;-82
2021/08/11 06:32:36;;;;;;;15.03;10.48;;;;;;;23.03;100.00;100216.30;1713908;81;21007;-83
2021/08/11 06:35:05;;;;;;;12.60;9.53;;;;;;;23.11;100.00;100218.73;1719118;81;21543;-86
2021/08/11 06:37:32;;;;;;;13.50;9.78;;;;;;;23.19;100.00;100214.55;1745088;81;21135;-83
2021/08/11 06:39:59;;;;;;;10.95;9.78;;;;;;;23.26;100.00;100208.70;1733678;82;21151;-84
2021/08/11 06:42:26;;;;;;;11.43;9.70;;;;;;;23.34;100.00;100207.64;1735617;82;20943;-84
2021/08/11 06:44:58;;;;;;;14.78;10.48;;;;;;;23.41;100.00;100206.30;1706095;82;21129;-84
2021/08/11 06:47:25;;;;;;;11.28;9.73;;;;;;;23.47;100.00;100209.44;1733613;82;21075;-86
2021/08/11 06:49:52;;;;;;;17.62;10.50;;;;;;;23.53;100.00;100203.80;1681028;84;21153;-85
2021/08/11 06:52:19;;;;;;;12.63;10.48;;;;;;;23.61;100.00;100197.72;1680759;84;21169;-84
2021/08/11 06:54:46;;;;;;;25.32;10.90;;;;;;;23.69;100.00;100195.84;1691811;83;21546;-82
2021/08/11 06:57:13;;;;;;;11.25;9.70;;;;;;;23.71;100.00;100184.49;1716068;83;21062;-82
2021/08/11 06:59:40;;;;;;;13.78;9.78;;;;;;;23.76;100.00;100189.97;1748057;81;21034;-82
2021/08/11 07:02:07;;;;;;;16.57;9.95;;;;;;;23.81;100.00;100187.51;1715070;81;21041;-85
2021/08/11 07:04:34;;;;;;;14.30;9.55;;;;;;;23.88;100.00;100194.09;1733917;81;21052;-81
2021/08/11 07:07:01;;;;;;;12.43;9.05;;;;;;;23.94;100.00;100191.44;1677110;83;21611;-80
2021/08/11 07:09:28;;;;;;;10.50;9.23;;;;;;;24.02;100.00;100195.70;1690765;83;21070;-81
2021/08/11 07:11:55;;;;;;;13.43;9.88;;;;;;;24.10;100.00;100190.62;1694607;83;21434;-84
2021/08/11 07:14:22;;;;;;;11.93;9.10;;;;;;;24.18;100.00;100187.70;1664373;84;21045;-83
2021/08/11 07:16:49;;;;;;;10.85;9.00;;;;;;;24.23;100.00;100184.39;1649371;84;22294;-83
2021/08/11 07:19:16;;;;;;;13.70;9.30;;;;;;;24.30;100.00;100181.69;1740504;81;21006;-83
2021/08/11 07:21:43;;;;;;;11.60;9.25;;;;;;;24.36;100.00;100182.14;1710200;81;21516;-78
2021/08/11 07:24:10;;;;;;;11.48;9.35;;;;;;;24.44;100.00;100185.86;1759939;80;21084;-82
2021/08/11 07:26:37;;;;;;;15.13;8.75;;;;;;;24.54;100.00;100196.84;1766092;80;21107;-85
2021/08/11 07:29:04;;;;;;;11.33;8.53;;;;;;;24.65;100.00;100193.97;1772320;80;21881;-85
2021/08/11 07:31:32;;;;;;;11.33;8.83;;;;;;;24.76;100.00;100191.66;1702578;82;21073;-85
2021/08/11 07:33:59;;;;;;;12.20;9.63;;;;;;;24.80;100.00;100194.97;1745395;80;21543;-84
2021/08/11 07:36:26;;;;;;;13.10;8.93;;;;;;;24.86;100.00;100203.43;1752640;80;21074;-89
2021/08/11 07:38:53;;;;;;;11.43;8.50;;;;;;;24.95;100.00;100209.27;1766287;80;21052;-86
2021/08/11 07:41:19;;;;;;;12.37;8.75;;;;;;;25.06;100.00;100209.05;1758339;80;21075;-86
2021/08/11 07:43:46;;;;;;;17.32;8.85;;;;;;;25.16;100.00;100212.02;1758371;80;21096;-85
2021/08/11 07:46:13;;;;;;;17.82;8.90;;;;;;;25.31;100.00;100210.33;1756725;80;21528;-87
2021/08/11 07:48:40;;;;;;;11.85;8.43;;;;;;;25.47;100.00;100210.78;1758194;80;21093;-85
2021/08/11 07:51:07;;;;;;;11.93;8.40;;;;;;;25.62;100.00;100205.05;1708812;80;21045;-85
2021/08/11 07:53:34;;;;;;;16.10;8.85;;;;;;;25.72;100.00;100205.86;1770125;80;21896;-86
2021/08/11 07:56:01;;;;;;;27.07;12.50;;;;;;;25.77;100.00;100197.98;1756952;80;21097;-86
2021/08/11 07:58:28;;;;;;;18.10;9.60;;;;;;;25.82;100.00;100199.44;1736866;80;21034;-86
2021/08/11 08:00:55;;;;;;;15.43;8.78;;;;;;;25.89;100.00;100200.69;1770972;80;21561;-84
2021/08/11 08:03:22;;;;;;;16.95;10.35;;;;;;;25.96;100.00;100204.88;1758091;80;21183;-85
2021/08/11 08:05:50;;;;;;;59.55;18.00;;;;;;;26.10;100.00;100200.72;1747902;80;21145;-86
2021/08/11 08:08:18;;;;;;;18.57;10.78;;;;;;;26.27;100.00;100206.20;1764188;80;21073;-82
2021/08/11 08:10:45;;;;;;;15.72;9.65;;;;;;;26.41;100.00;100200.92;1774032;80;21011;-84
2021/08/11 08:13:12;;;;;;;32.88;13.75;;;;;;;26.55;100.00;100202.06;1766314;80;21571;-86
2021/08/11 08:15:39;;;;;;;12.10;9.73;;;;;;;26.66;100.00;100198.56;1709140;80;21022;-84
2021/08/11 08:18:06;;;;;;;27.93;11.68;;;;;;;26.76;100.00;100197.49;1741103;80;21775;-84
2021/08/11 08:20:34;;;;;;;14.05;9.20;;;;;;;26.91;100.00;100198.87;1776686;80;21026;-80
2021/08/11 08:23:01;;;;;;;10.05;9.05;;;;;;;27.01;100.00;100191.08;1757738;80;21080;-86
2021/08/11 08:25:28;;;;;;;10.05;8.58;;;;;;;27.06;100.00;100191.17;1750886;80;21539;-83
2021/08/11 08:27:55;;;;;;;11.53;8.20;;;;;;;27.07;100.00;100185.33;1765054;80;21085;-83
2021/08/11 08:30:22;;;;;;;14.38;9.18;;;;;;;27.11;100.00;100187.00;1740968;81;21075;-82
2021/08/11 08:32:49;;;;;;;10.75;8.50;;;;;;;27.16;100.00;100189.23;1675575;83;21560;-82
2021/08/11 08:35:19;;;;;;;11.33;8.68;;;;;;;27.25;100.00;100191.03;1672225;83;21113;-85
2021/08/11 08:37:46;;;;;;;10.58;9.15;;;;;;;27.35;100.00;100193.08;1700532;82;21132;-85
2021/08/11 08:40:14;;;;;;;11.22;9.68;;;;;;;27.43;100.00;100197.28;1704945;81;21092;-80
2021/08/11 08:42:42;;;;;;;13.43;9.48;;;;;;;27.52;100.00;100197.20;1707660;81;21097;-83
2021/08/11 08:45:12;;;;;;;14.05;9.65;;;;;;;27.60;100.00;100196.79;1730079;81;21014;-80
2021/08/11 08:47:40;;;;;;;11.55;8.78;;;;;;;27.67;100.00;100197.99;1726162;81;21104;-83
2021/08/11 08:50:11;;;;;;;14.45;9.28;;;;;;;27.74;100.00;100193.84;1717110;82;21065;-83
2021/08/11 08:52:38;;;;;;;10.82;9.05;;;;;;;27.79;100.00;100193.92;1703063;82;21035;-82
2021/08/11 08:55:07;;;;;;;15.38;9.08;;;;;;;27.89;100.00;100194.11;1716977;81;21875;-89
2021/08/11 08:57:35;;;;;;;10.63;8.85;;;;;;;28.06;100.00;100194.16;1741158;81;21045;-84
2021/08/11 09:00:09;;;;;;;12.00;9.30;;;;;;;28.22;100.00;100189.05;1718183;81;21494;-85
2021/08/11 09:02:38;;;;;;;11.57;8.75;;;;;;;28.31;100.00;100184.41;1711041;81;21148;-85
2021/08/11 09:05:11;;;;;;;9.78;8.33;;;;;;;28.38;100.00;100178.86;1661815;82;21052;-84
2021/08/11 09:07:44;;;;;;;10.10;8.55;;;;;;;28.47;100.00;100176.60;1714440;81;21139;-80
2021/08/11 09:10:30;;;;;;;9.33;8.28;;;;;;;28.56;100.00;100177.81;1752105;80;21108;-84
2021/08/11 09:13:03;;;;;;;13.22;9.40;;;;;;;28.62;100.00;100182.69;1737115;81;21043;-83
2021/08/11 09:15:44;;;;;;;11.08;9.13;;;;;;;28.67;100.00;100176.59;1673581;84;22104;-81
2021/08/11 09:18:22;;;;;;;11.65;9.10;;;;;;;28.70;95.15;100174.80;1672065;84;21121;-82
2021/08/11 09:20:53;;;;;;;9.50;8.35;;;;;;;28.74;92.22;100178.08;1688884;83;21347;-88
2021/08/11 09:23:38;;;;;;;9.28;7.78;;;;;;;28.86;93.86;100175.29;1715037;83;21116;-82
2021/08/11 09:26:08;;;;;;;10.32;8.23;;;;;;;29.01;95.32;100177.88;1672402;84;21383;-85
2021/08/11 09:28:38;;;;;;;11.55;8.80;;;;;;;29.21;94.38;100179.99;1703175;82;21077;-82
2021/08/11 09:31:25;;;;;;;11.73;8.75;;;;;;;29.36;92.14;100179.39;1700522;82;21057;-85
2021/08/11 09:33:59;;;;;;;8.78;7.85;;;;;;;29.48;84.87;100173.34;1704037;83;22008;-82
2021/08/11 09:36:27;;;;;;;9.98;8.13;;;;;;;29.65;91.84;100173.78;1724342;82;21616;-83
2021/08/11 09:38:58;;;;;;;13.22;8.10;;;;;;;29.72;86.35;100167.67;1713608;81;20978;-82
2021/08/11 09:41:25;;;;;;;13.13;9.13;;;;;;;29.71;78.11;100168.73;1699504;81;20998;-82
2021/08/11 09:44:10;;;;;;;13.30;8.73;;;;;;;29.61;81.89;100160.58;1724659;81;21092;-87
2021/08/11 09:46:40;;;;;;;11.65;8.53;;;;;;;29.61;84.17;100167.29;1734731;81;21082;-86
2021/08/11 09:49:20;;;;;;;10.82;8.30;;;;;;;29.72;90.49;100159.63;1671259;83;21018;-86
2021/08/11 09:51:59;;;;;;;13.25;9.18;;;;;;;29.87;90.03;100162.99;1707560;83;21033;-88
2021/08/11 09:54:31;;;;;;;10.18;8.78;;;;;;;29.90;90.50;100159.27;1659861;83;21074;-79
2021/08/11 09:56:59;;;;;;;13.03;9.18;;;;;;;29.81;87.64;100166.67;1716521;82;22939;-85
2021/08/11 09:59:26;;;;;;;13.88;9.95;;;;;;;29.73;88.13;100159.91;1693647;83;21165;-81
2021/08/11 10:02:15;;;;;;;10.23;9.15;;;;;;;29.66;82.95;100164.67;1693552;81;21612;-84
2021/08/11 10:04:42;;;;;;;12.50;9.33;;;;;;;29.70;84.58;100164.43;1686195;83;21509;-84
2021/08/11 10:07:09;;;;;;;12.65;9.95;;;;;;;29.81;81.49;100159.45;1647060;84;21034;-84
2021/08/11 10:09:36;;;;;;;12.13;9.08;;;;;;;29.90;78.54;100162.45;1691075;82;21586;-82
2021/08/11 10:12:04;;;;;;;17.17;9.65;;;;;;;29.97;77.88;100164.97;1674683;83;21161;-83
2021/08/11 10:14:37;;;;;;;14.95;9.75;;;;;;;30.03;75.47;100167.45;1677655;83;21577;-88
2021/08/11 10:17:05;;;;;;;11.38;9.43;;;;;;;30.13;77.68;100168.05;1671707;83;21215;-82
2021/08/11 10:19:33;;;;;;;13.85;9.75;;;;;;;30.23;75.94;100161.14;1666920;84;21185;-84
2021/08/11 10:22:05;;;;;;;10.00;8.93;;;;;;;30.32;84.07;100160.40;1657845;84;21094;-84
2021/08/11 10:24:32;;;;;;;12.05;9.68;;;;;;;30.47;82.31;100161.55;1706407;81;21161;-82
2021/08/11 10:26:59;;;;;;;14.85;9.70;;;;;;;30.47;78.20;100151.64;1658981;85;21051;-83
2021/08/11 10:29:29;;;;;;;12.98;9.93;;;;;;;30.42;75.10;100154.83;1684553;84;21040;-84
2021/08/11 10:31:56;;;;;;;12.45;9.05;;;;;;;30.30;79.54;100152.33;1673134;85;21023;-86
2021/08/11 10:34:24;;;;;;;12.85;9.43;;;;;;;30.19;82.27;100153.59;1678107;84;21078;-80
2021/08/11 10:36:51;;;;;;;11.43;9.85;;;;;;;30.08;87.05;100153.78;1686656;83;21243;-82
2021/08/11 10:39:19;;;;;;;12.60;10.03;;;;;;;29.95;86.71;100155.84;1711317;83;21113;-86
2021/08/11 10:41:46;;;;;;;12.93;10.78;;;;;;;29.84;90.35;100150.90;1717743;82;21015;-81
2021/08/11 10:44:23;;;;;;;12.33;9.63;;;;;;;29.79;83.06;100152.18;1717417;83;21096;-83
2021/08/11 10:46:59;;;;;;;15.03;10.68;;;;;;;29.77;86.01;100154.30;1682092;84;20999;-83
2021/08/11 10:49:28;;;;;;;16.82;10.95;;;;;;;29.71;98.81;100149.95;1696078;82;21183;-82
2021/08/11 10:51:59;;;;;;;13.70;11.48;;;;;;;29.63;92.04;100155.78;1671982;84;21121;-82
2021/08/11 10:54:27;;;;;;;17.35;10.65;;;;;;;29.57;80.13;100152.23;1651159;85;21473;-85
2021/08/11 10:56:56;;;;;;;15.08;10.68;;;;;;;29.49;93.77;100149.49;1687358;84;21031;-82
2021/08/11 10:59:29;;;;;;;11.88;9.88;;;;;;;29.48;91.83;100150.55;1656517;84;21745;-83
2021/08/11 11:01:58;;;;;;;12.58;10.72;;;;;;;29.55;100.00;100150.36;1671677;84;21250;-86
2021/08/11 11:04:50;;;;;;;14.20;11.20;;;;;;;29.72;98.27;100143.02;1680624;84;21056;-82
2021/08/11 11:07:18;;;;;;;11.22;10.00;;;;;;;29.90;91.65;100148.53;1661896;84;21612;-85
2021/08/11 11:09:47;;;;;;;13.08;9.83;;;;;;;30.03;92.60;100150.52;1694050;83;21028;-87
2021/08/11 11:12:23;;;;;;;14.47;9.75;;;;;;;30.18;86.38;100153.31;1690982;83;21118;-82
2021/08/11 11:14:56;;;;;;;13.72;10.13;;;;;;;30.31;93.20;100144.55;1657151;84;21107;-85
2021/08/11 11:17:28;;;;;;;11.15;10.05;;;;;;;30.45;80.33;100145.71;1646670;84;21098;-85
2021/08/11 11:20:09;;;;;;;14.10;10.88;;;;;;;30.52;82.76;100143.63;1679402;84;21662;-84